createdAt,value
2022-11-27T00:00:47.061Z,7.75
2022-11-27T00:03:34.127Z,7.97
2022-11-27T00:06:23.369Z,7.63
2022-11-27T00:09:15.243Z,6.25
2022-11-27T00:12:02.347Z,6.68
2022-11-27T00:14:54.654Z,7.95
2022-11-27T00:17:42.543Z,6.72
2022-11-27T00:20:30.037Z,6.93
2022-11-27T00:23:16.939Z,7.55
2022-11-27T00:26:05.324Z,7.78
2022-11-27T00:28:52.488Z,7.72
2022-11-27T00:31:39.461Z,6.88
2022-11-27T00:34:26.595Z,6.20
2022-11-27T00:37:14.872Z,7.20
2022-11-27T00:40:02.129Z,7.63
2022-11-27T00:42:49.089Z,7.80
2022-11-27T00:45:36.026Z,6.63
2022-11-27T00:48:23.230Z,6.93
2022-11-27T00:51:16.304Z,6.28
2022-11-27T00:54:04.530Z,6.50
2022-11-27T00:56:51.466Z,6.38
2022-11-27T00:59:38.420Z,6.50
2022-11-27T01:02:25.497Z,7.65
2022-11-27T01:05:12.669Z,7.10
2022-11-27T01:07:59.641Z,7.40
2022-11-27T01:10:56.083Z,6.75
2022-11-27T01:13:43.054Z,6.95
2022-11-27T01:16:32.016Z,6.97
2022-11-27T01:19:19.484Z,7.35
2022-11-27T01:22:06.604Z,6.30
2022-11-27T01:24:53.525Z,6.53
2022-11-27T01:27:40.481Z,6.57
2022-11-27T01:30:27.393Z,7.50
2022-11-27T01:33:14.421Z,7.20
2022-11-27T01:36:03.775Z,6.72
2022-11-27T01:38:51.218Z,5.45
2022-11-27T01:41:41.484Z,5.75
2022-11-27T01:44:50.809Z,5.95
2022-11-27T01:47:45.875Z,5.50
2022-11-27T01:50:39.179Z,5.63
2022-11-27T01:53:26.160Z,6.28
2022-11-27T01:56:14.821Z,7.82
2022-11-27T01:59:03.791Z,6.10
2022-11-27T02:01:50.864Z,6.97
2022-11-27T02:04:38.206Z,6.32
2022-11-27T02:07:25.659Z,6.07
2022-11-27T02:10:13.206Z,5.88
2022-11-27T02:13:07.576Z,5.90
2022-11-27T02:16:06.949Z,6.68
2022-11-27T02:19:17.026Z,7.35
2022-11-27T02:22:14.896Z,5.63
2022-11-27T02:25:16.541Z,6.68
2022-11-27T02:28:50.005Z,6.28
2022-11-27T02:31:53.312Z,5.90
2022-11-27T02:34:58.908Z,7.60
2022-11-27T02:38:00.029Z,6.57
2022-11-27T02:41:03.023Z,6.80
2022-11-27T02:43:53.195Z,6.95
2022-11-27T02:46:41.947Z,7.72
2022-11-27T02:49:29.284Z,6.82
2022-11-27T02:52:18.657Z,5.88
2022-11-27T02:55:11.352Z,6.68
2022-11-27T02:58:02.096Z,7.05
2022-11-27T03:00:50.670Z,5.82
2022-11-27T03:03:43.824Z,6.88
2022-11-27T03:06:39.455Z,6.35
2022-11-27T03:09:34.400Z,6.32
2022-11-27T03:12:21.433Z,6.82
2022-11-27T03:15:09.353Z,8.38
2022-11-27T03:18:06.775Z,6.53
2022-11-27T03:21:19.168Z,6.68
2022-11-27T03:24:08.094Z,6.37
2022-11-27T03:26:57.083Z,6.63
2022-11-27T03:29:54.467Z,7.63
2022-11-27T03:32:41.511Z,7.05
2022-11-27T03:35:28.537Z,9.30
2022-11-27T03:38:15.474Z,6.95
2022-11-27T03:41:10.016Z,7.30
2022-11-27T03:44:23.719Z,7.90
2022-11-27T03:48:06.220Z,10.32
2022-11-27T03:51:19.292Z,10.65
2022-11-27T03:54:40.105Z,11.57
2022-11-27T03:57:59.140Z,7.75
2022-11-27T04:00:50.129Z,9.07
2022-11-27T04:03:37.403Z,11.50
2022-11-27T04:06:24.478Z,11.85
2022-11-27T04:09:11.413Z,13.95
2022-11-27T04:11:58.364Z,9.05
2022-11-27T04:14:45.281Z,7.57
2022-11-27T04:17:32.469Z,9.02
2022-11-27T04:20:19.384Z,6.97
2022-11-27T04:23:06.408Z,6.03
2022-11-27T04:25:53.417Z,7.00
2022-11-27T04:28:40.452Z,7.30
2022-11-27T04:31:27.422Z,6.68
2022-11-27T04:34:14.451Z,8.18
2022-11-27T04:37:01.351Z,7.03
2022-11-27T04:39:48.295Z,6.75
2022-11-27T04:42:35.310Z,6.55
2022-11-27T04:45:22.363Z,6.70
2022-11-27T04:48:09.325Z,6.85
2022-11-27T04:50:56.248Z,6.13
2022-11-27T04:53:43.188Z,6.97
2022-11-27T04:56:30.332Z,6.40
2022-11-27T04:59:17.342Z,6.35
2022-11-27T05:02:04.506Z,7.18
2022-11-27T05:04:51.420Z,9.18
2022-11-27T05:07:38.430Z,7.32
2022-11-27T05:10:25.409Z,7.32
2022-11-27T05:13:12.364Z,7.45
2022-11-27T05:15:59.336Z,7.35
2022-11-27T05:18:46.282Z,8.30
2022-11-27T05:21:33.200Z,8.55
2022-11-27T05:24:21.623Z,8.23
2022-11-27T05:27:08.544Z,7.07
2022-11-27T05:29:55.509Z,7.43
2022-11-27T05:32:42.411Z,7.63
2022-11-27T05:35:29.395Z,8.00
2022-11-27T05:38:16.313Z,7.47
2022-11-27T05:41:03.304Z,6.82
2022-11-27T05:43:50.401Z,6.78
2022-11-27T05:46:37.350Z,7.20
2022-11-27T05:49:24.327Z,7.10
2022-11-27T05:52:11.258Z,6.50
2022-11-27T05:54:58.238Z,7.32
2022-11-27T05:57:45.407Z,6.38
2022-11-27T06:00:32.374Z,6.60
2022-11-27T06:03:19.575Z,6.72
2022-11-27T06:06:12.200Z,6.53
2022-11-27T06:08:59.194Z,7.15
2022-11-27T06:11:46.127Z,7.07
2022-11-27T06:14:35.067Z,7.18
2022-11-27T06:17:21.893Z,7.05
2022-11-27T06:20:09.422Z,7.07
2022-11-27T06:22:57.326Z,7.30
2022-11-27T06:25:44.343Z,7.25
2022-11-27T06:28:31.239Z,7.78
2022-11-27T06:31:21.535Z,6.88
2022-11-27T06:34:08.502Z,6.38
2022-11-27T06:36:55.363Z,6.95
2022-11-27T06:39:42.362Z,9.80
2022-11-27T06:42:30.344Z,7.15
2022-11-27T06:45:17.343Z,6.25
2022-11-27T06:48:04.391Z,6.97
2022-11-27T06:50:51.292Z,6.97
2022-11-27T06:53:39.293Z,7.65
2022-11-27T06:56:28.336Z,8.05
2022-11-27T06:59:15.636Z,6.57
2022-11-27T07:02:02.553Z,8.10
2022-11-27T07:04:49.541Z,7.38
2022-11-27T07:07:39.783Z,7.25
2022-11-27T07:10:35.059Z,9.10
2022-11-27T07:13:21.885Z,10.55
2022-11-27T07:16:10.485Z,11.45
2022-11-27T07:19:05.953Z,12.63
2022-11-27T07:21:52.880Z,11.82
2022-11-27T07:24:40.095Z,14.23
2022-11-27T07:27:27.175Z,16.75
2022-11-27T07:30:14.839Z,17.30
2022-11-27T07:33:01.788Z,16.13
2022-11-27T07:35:48.694Z,16.40
2022-11-27T07:38:35.659Z,16.40
2022-11-27T07:41:22.585Z,17.88
2022-11-27T07:44:10.088Z,20.33
2022-11-27T07:46:59.861Z,19.15
2022-11-27T07:49:46.764Z,20.73
2022-11-27T07:52:41.108Z,21.60
2022-11-27T07:55:28.624Z,20.70
2022-11-27T07:58:15.479Z,19.85
2022-11-27T08:01:07.971Z,20.73
2022-11-27T08:03:54.883Z,22.55
2022-11-27T08:06:42.031Z,20.80
2022-11-27T08:09:30.191Z,21.02
2022-11-27T08:12:17.149Z,22.13
2022-11-27T08:15:05.726Z,22.98
2022-11-27T08:17:52.634Z,22.30
2022-11-27T08:20:39.548Z,22.75
2022-11-27T08:23:26.449Z,21.08
2022-11-27T08:26:13.880Z,20.83
2022-11-27T08:29:00.971Z,20.85
2022-11-27T08:31:47.961Z,22.30
2022-11-27T08:34:34.899Z,21.02
2022-11-27T08:37:22.095Z,20.27
2022-11-27T08:40:09.810Z,20.35
2022-11-27T08:42:58.504Z,22.80
2022-11-27T08:45:45.475Z,21.88
2022-11-27T08:48:32.398Z,21.98
2022-11-27T08:51:19.319Z,21.40
2022-11-27T08:54:06.204Z,20.15
2022-11-27T08:56:53.102Z,21.77
2022-11-27T08:59:40.012Z,20.48
2022-11-27T09:02:27.160Z,21.60
2022-11-27T09:05:14.102Z,19.67
2022-11-27T09:08:02.555Z,18.45
2022-11-27T09:10:49.584Z,18.58
2022-11-27T09:13:38.172Z,17.13
2022-11-27T09:16:25.131Z,17.15
2022-11-27T09:19:12.017Z,16.42
2022-11-27T09:21:59.545Z,17.42
2022-11-27T09:24:46.986Z,18.40
2022-11-27T09:27:33.910Z,16.85
2022-11-27T09:30:20.932Z,19.08
2022-11-27T09:33:07.819Z,19.55
2022-11-27T09:35:55.054Z,19.48
2022-11-27T09:38:42.682Z,19.60
2022-11-27T09:41:59.708Z,17.05
2022-11-27T09:44:54.551Z,18.85
2022-11-27T09:47:49.881Z,19.23
2022-11-27T09:50:42.558Z,18.73
2022-11-27T09:53:40.463Z,18.42
2022-11-27T09:56:28.288Z,16.42
2022-11-27T09:59:21.723Z,16.23
2022-11-27T10:02:24.229Z,17.92
2022-11-27T10:05:20.881Z,17.13
2022-11-27T10:08:36.516Z,17.80
2022-11-27T10:12:05.578Z,16.65
2022-11-27T10:15:07.498Z,16.33
2022-11-27T10:18:22.428Z,14.82
2022-11-27T10:21:49.757Z,15.00
2022-11-27T10:24:46.284Z,14.13
2022-11-27T10:31:43.217Z,14.75
2022-11-27T10:34:48.629Z,11.88
2022-11-27T10:38:05.262Z,9.18
2022-11-27T10:41:49.741Z,8.98
2022-11-27T10:44:44.269Z,8.30
2022-11-27T10:47:33.864Z,8.25
2022-11-27T10:50:21.183Z,9.50
2022-11-27T10:53:20.149Z,8.75
2022-11-27T10:56:50.188Z,9.07
2022-11-27T10:59:43.804Z,10.75
2022-11-27T11:02:37.884Z,10.23
2022-11-27T11:05:45.557Z,9.43
2022-11-27T11:08:37.281Z,9.57
2022-11-27T11:11:26.539Z,10.38
2022-11-27T11:14:21.207Z,9.50
2022-11-27T11:17:16.495Z,9.60
2022-11-27T11:20:32.906Z,9.13
2022-11-27T11:23:27.106Z,9.07
2022-11-27T11:26:33.321Z,7.28
2022-11-27T11:29:35.363Z,7.57
2022-11-27T11:32:34.968Z,6.72
2022-11-27T11:35:32.703Z,6.97
2022-11-27T11:38:27.232Z,7.57
2022-11-27T11:41:17.943Z,7.55
2022-11-27T11:44:05.084Z,6.93
2022-11-27T11:46:53.848Z,7.97
2022-11-27T11:49:40.795Z,8.45
2022-11-27T11:52:54.691Z,8.13
2022-11-27T11:56:19.020Z,8.70
2022-11-27T11:59:45.183Z,8.43
2022-11-27T12:03:11.284Z,10.27
2022-11-27T12:06:36.176Z,10.75
2022-11-27T12:10:15.390Z,11.07
2022-11-27T12:13:34.113Z,9.80
2022-11-27T12:17:13.218Z,10.02
2022-11-27T12:20:18.707Z,9.32
2022-11-27T12:23:51.874Z,10.30
2022-11-27T12:27:06.609Z,10.27
2022-11-27T12:30:20.773Z,10.93
2022-11-27T12:33:48.686Z,10.82
2022-11-27T12:37:13.744Z,11.10
2022-11-27T12:40:36.296Z,10.25
2022-11-27T12:43:27.985Z,11.43
2022-11-27T12:47:06.911Z,9.52
2022-11-27T12:50:09.768Z,10.45
2022-11-27T12:53:11.740Z,9.35
2022-11-27T12:56:33.871Z,10.52
2022-11-27T12:59:33.691Z,9.70
2022-11-27T13:02:46.815Z,10.48
2022-11-27T13:06:13.026Z,12.25
2022-11-27T13:09:07.730Z,11.27
2022-11-27T13:11:56.620Z,11.02
2022-11-27T13:14:52.687Z,11.40
2022-11-27T13:17:42.432Z,11.23
2022-11-27T13:20:36.696Z,11.73
2022-11-27T13:23:23.784Z,13.02
2022-11-27T13:26:35.171Z,14.60
2022-11-27T13:29:34.071Z,14.43
2022-11-27T13:32:24.966Z,12.93
2022-11-27T13:35:28.560Z,12.43
2022-11-27T13:38:23.229Z,11.95
2022-11-27T13:41:21.175Z,10.73
2022-11-27T13:44:27.314Z,12.70
2022-11-27T13:47:17.703Z,11.75
2022-11-27T13:50:16.575Z,12.55
2022-11-27T13:53:06.267Z,14.30
2022-11-27T13:55:54.970Z,13.95
2022-11-27T13:58:43.127Z,11.88
2022-11-27T14:01:30.118Z,11.68
2022-11-27T14:04:17.096Z,12.85
2022-11-27T14:07:11.725Z,12.63
2022-11-27T14:10:08.717Z,12.30
2022-11-27T14:13:01.695Z,12.82
2022-11-27T14:18:56.864Z,13.38
2022-11-27T14:21:44.352Z,13.48
2022-11-27T14:24:43.421Z,14.35
2022-11-27T14:27:35.838Z,13.73
2022-11-27T14:30:48.397Z,13.38
2022-11-27T14:33:59.636Z,14.50
2022-11-27T14:36:42.486Z,15.65
2022-11-27T14:39:36.916Z,14.73
2022-11-27T14:42:30.650Z,15.05
2022-11-27T14:45:21.894Z,15.25
2022-11-27T14:48:20.154Z,13.15
2022-11-27T14:51:13.711Z,14.35
2022-11-27T14:54:03.191Z,14.02
2022-11-27T14:56:50.575Z,14.02
2022-11-27T14:59:37.496Z,13.43
2022-11-27T15:02:29.250Z,12.50
2022-11-27T15:05:22.665Z,14.37
2022-11-27T15:08:10.532Z,12.48
2022-11-27T15:10:59.623Z,13.75
2022-11-27T15:13:55.708Z,12.93
2022-11-27T15:16:49.576Z,13.38
2022-11-27T15:19:37.727Z,12.52
2022-11-27T15:22:24.823Z,12.50
2022-11-27T15:25:35.597Z,12.50
2022-11-27T15:28:58.504Z,12.85
2022-11-27T15:31:51.557Z,14.15
2022-11-27T15:34:38.718Z,13.00
2022-11-27T15:37:31.291Z,13.25
2022-11-27T15:40:35.985Z,14.98
2022-11-27T15:43:22.825Z,14.07
2022-11-27T15:46:12.911Z,15.70
2022-11-27T15:48:59.918Z,16.10
2022-11-27T15:51:46.843Z,14.43
2022-11-27T15:54:33.693Z,14.93
2022-11-27T15:57:21.128Z,15.25
2022-11-27T16:00:10.103Z,14.73
2022-11-27T16:02:57.366Z,14.25
2022-11-27T16:05:44.278Z,13.13
2022-11-27T16:08:31.497Z,15.05
2022-11-27T16:11:19.706Z,14.23
2022-11-27T16:14:06.879Z,14.38
2022-11-27T16:16:53.840Z,14.02
2022-11-27T16:19:41.113Z,12.68
2022-11-27T16:22:28.022Z,14.52
2022-11-27T16:25:15.065Z,14.18
2022-11-27T16:28:03.220Z,15.75
2022-11-27T16:30:53.948Z,14.73
2022-11-27T16:33:41.706Z,13.90
2022-11-27T16:36:29.298Z,16.08
2022-11-27T16:39:17.386Z,16.80
2022-11-27T16:42:04.434Z,15.68
2022-11-27T16:44:51.301Z,15.38
2022-11-27T16:47:38.172Z,14.80
2022-11-27T16:50:26.658Z,13.75
2022-11-27T16:53:13.511Z,12.93
2022-11-27T16:56:00.320Z,14.70
2022-11-27T16:58:48.142Z,13.10
2022-11-27T17:01:36.336Z,13.75
2022-11-27T17:04:23.434Z,12.88
2022-11-27T17:07:11.047Z,14.18
2022-11-27T17:09:58.034Z,14.57
2022-11-27T17:12:44.895Z,13.70
2022-11-27T17:15:40.396Z,13.45
2022-11-27T17:18:27.669Z,13.38
2022-11-27T17:21:34.769Z,13.55
2022-11-27T17:24:21.629Z,18.95
2022-11-27T17:27:08.545Z,15.40
2022-11-27T17:29:55.418Z,63.05
2022-11-27T17:32:42.311Z,33.42
2022-11-27T17:35:30.570Z,24.77
2022-11-27T17:38:17.714Z,19.80
2022-11-27T17:41:07.961Z,15.68
2022-11-27T17:43:54.905Z,14.80
2022-11-27T17:46:44.893Z,16.25
2022-11-27T17:49:31.746Z,14.07
2022-11-27T17:52:18.662Z,13.88
2022-11-27T17:55:06.365Z,14.18
2022-11-27T17:57:53.796Z,13.55
2022-11-27T18:00:40.767Z,13.40
2022-11-27T18:03:29.210Z,12.35
2022-11-27T18:06:18.396Z,12.73
2022-11-27T18:09:05.493Z,13.40
2022-11-27T18:11:54.824Z,13.32
2022-11-27T18:14:41.762Z,14.13
2022-11-27T18:17:29.356Z,12.75
2022-11-27T18:20:16.365Z,12.90
2022-11-27T18:23:04.326Z,15.32
2022-11-27T18:25:51.431Z,13.80
2022-11-27T18:28:38.820Z,12.88
2022-11-27T18:31:27.085Z,13.73
2022-11-27T18:34:13.997Z,14.23
2022-11-27T18:37:00.990Z,14.70
2022-11-27T18:39:47.984Z,23.40
2022-11-27T18:42:35.101Z,23.10
2022-11-27T18:45:32.955Z,19.52
2022-11-27T18:48:20.729Z,18.13
2022-11-27T18:51:10.142Z,15.82
2022-11-27T18:53:57.271Z,16.15
2022-11-27T18:56:44.191Z,60.88
2022-11-27T18:59:31.091Z,39.33
2022-11-27T19:02:18.062Z,26.27
2022-11-27T19:05:05.411Z,22.10
2022-11-27T19:07:52.543Z,20.42
2022-11-27T19:10:39.416Z,14.40
2022-11-27T19:13:26.389Z,14.00
2022-11-27T19:16:24.864Z,17.30
2022-11-27T19:22:26.158Z,16.20
2022-11-27T19:25:13.210Z,15.60
2022-11-27T19:28:00.120Z,15.48
2022-11-27T19:30:47.039Z,14.55
2022-11-27T19:33:36.109Z,14.77
2022-11-27T19:36:23.355Z,15.52
2022-11-27T19:39:14.619Z,14.85
2022-11-27T19:42:01.541Z,14.93
2022-11-27T19:44:48.451Z,14.85
2022-11-27T19:47:35.364Z,16.13
2022-11-27T19:50:22.253Z,15.77
2022-11-27T19:53:09.189Z,17.05
2022-11-27T19:55:56.175Z,14.63
2022-11-27T19:58:43.750Z,16.75
2022-11-27T20:01:30.806Z,20.60
2022-11-27T20:04:17.796Z,20.40
2022-11-27T20:07:04.920Z,19.65
2022-11-27T20:09:52.260Z,14.63
2022-11-27T20:12:39.181Z,15.70
2022-11-27T20:15:26.304Z,12.30
2022-11-27T20:18:13.176Z,10.57
2022-11-27T20:21:12.166Z,11.02
2022-11-27T20:23:59.088Z,9.43
2022-11-27T20:26:46.081Z,11.60
2022-11-27T20:29:33.140Z,13.68
2022-11-27T20:32:20.046Z,13.35
2022-11-27T20:35:07.343Z,14.52
2022-11-27T20:37:54.331Z,9.75
2022-11-27T20:40:41.223Z,9.40
2022-11-27T20:43:28.327Z,10.23
2022-11-27T20:46:16.433Z,15.90
2022-11-27T20:49:04.290Z,10.05
2022-11-27T20:51:51.630Z,11.32
2022-11-27T20:54:38.606Z,10.82
2022-11-27T20:57:25.538Z,11.85
2022-11-27T21:00:13.013Z,11.27
2022-11-27T21:02:59.917Z,11.15
2022-11-27T21:05:48.188Z,13.23
2022-11-27T21:08:35.560Z,12.20
2022-11-27T21:11:25.298Z,12.10
2022-11-27T21:14:14.700Z,12.32
2022-11-27T21:17:05.019Z,10.18
2022-11-27T21:19:52.741Z,11.00
2022-11-27T21:22:42.574Z,11.70
2022-11-27T21:25:29.563Z,13.77
2022-11-27T21:28:16.481Z,12.43
2022-11-27T21:31:18.391Z,14.75
2022-11-27T21:34:07.287Z,14.80
2022-11-27T21:36:54.171Z,13.93
2022-11-27T21:39:41.350Z,14.15
2022-11-27T21:42:29.261Z,12.25
2022-11-27T21:45:19.146Z,14.02
2022-11-27T21:48:09.960Z,12.38
2022-11-27T21:51:04.967Z,12.63
2022-11-27T21:53:53.417Z,12.15
2022-11-27T21:56:40.911Z,12.00
2022-11-27T21:59:27.793Z,12.57
2022-11-27T22:02:14.708Z,12.40
2022-11-27T22:05:01.650Z,12.52
2022-11-27T22:07:48.623Z,12.82
2022-11-27T22:10:39.606Z,14.35
2022-11-27T22:13:28.268Z,13.48
2022-11-27T22:16:21.320Z,11.45
2022-11-27T22:19:08.493Z,11.77
2022-11-27T22:21:55.444Z,12.02
2022-11-27T22:24:42.893Z,11.90
2022-11-27T22:27:30.189Z,13.25
2022-11-27T22:30:17.719Z,12.27
2022-11-27T22:33:04.654Z,11.77
2022-11-27T22:35:51.693Z,13.00
2022-11-27T22:38:38.988Z,14.55
2022-11-27T22:41:28.030Z,13.85
2022-11-27T22:44:17.244Z,15.75
2022-11-27T22:47:04.231Z,15.02
2022-11-27T22:49:51.164Z,13.68
2022-11-27T22:52:38.139Z,15.85
2022-11-27T22:55:25.049Z,15.02
2022-11-27T22:58:11.969Z,15.90
2022-11-27T23:00:59.381Z,13.73
2022-11-27T23:03:46.464Z,14.43
2022-11-27T23:06:33.437Z,14.63
2022-11-27T23:09:20.415Z,16.58
2022-11-27T23:12:07.418Z,12.07
2022-11-27T23:14:54.398Z,13.07
2022-11-27T23:17:41.388Z,18.23
2022-11-27T23:20:28.527Z,13.15
2022-11-27T23:23:15.432Z,13.98
2022-11-27T23:26:07.358Z,19.23
2022-11-27T23:28:54.301Z,14.65
2022-11-27T23:31:41.393Z,16.67
2022-11-27T23:34:28.956Z,20.88
2022-11-27T23:37:15.940Z,18.65
2022-11-27T23:40:03.007Z,18.42
2022-11-27T23:42:50.050Z,19.80
2022-11-27T23:45:38.196Z,21.60
2022-11-27T23:48:25.164Z,18.00
2022-11-27T23:51:19.619Z,16.90
2022-11-27T23:54:09.352Z,12.98
2022-11-27T23:56:56.540Z,10.63
2022-11-27T23:59:43.739Z,9.20
